createdAt,value
2018-08-25T00:00:56.136Z,15.40
2018-08-25T00:03:24.602Z,15.30
2018-08-25T00:05:53.114Z,15.30
2018-08-25T00:08:21.618Z,15.40
2018-08-25T00:10:50.075Z,15.30
2018-08-25T00:13:18.615Z,15.30
2018-08-25T00:15:47.096Z,15.30
2018-08-25T00:18:15.590Z,15.30
2018-08-25T00:20:44.058Z,15.30
2018-08-25T00:23:12.537Z,15.20
2018-08-25T00:25:41.031Z,15.20
2018-08-25T00:28:09.941Z,15.20
2018-08-25T00:30:43.659Z,15.10
2018-08-25T00:33:12.166Z,15.10
2018-08-25T00:35:40.628Z,15.10
2018-08-25T00:38:09.087Z,15.00
2018-08-25T00:40:37.568Z,15.00
2018-08-25T00:43:06.264Z,14.90
2018-08-25T00:45:34.791Z,14.90
2018-08-25T00:48:03.257Z,14.90
2018-08-25T00:50:31.819Z,14.90
2018-08-25T00:53:00.282Z,14.80
2018-08-25T00:55:28.808Z,14.80
2018-08-25T00:57:57.324Z,14.70
2018-08-25T01:00:25.883Z,14.80
2018-08-25T01:02:54.342Z,14.70
2018-08-25T01:05:22.858Z,14.70
2018-08-25T01:07:51.320Z,14.70
2018-08-25T01:10:19.916Z,14.70
2018-08-25T01:12:48.396Z,14.60
2018-08-25T01:15:16.879Z,14.60
2018-08-25T01:17:45.354Z,14.50
2018-08-25T01:20:13.842Z,14.50
2018-08-25T01:22:42.283Z,14.50
2018-08-25T01:25:10.765Z,14.50
2018-08-25T01:27:39.225Z,14.50
2018-08-25T01:30:07.777Z,14.40
2018-08-25T01:32:36.270Z,14.40
2018-08-25T01:35:04.787Z,14.30
2018-08-25T01:37:33.226Z,14.30
2018-08-25T01:40:01.730Z,14.30
2018-08-25T01:42:30.199Z,14.20
2018-08-25T01:44:58.675Z,14.20
2018-08-25T01:47:27.141Z,14.10
2018-08-25T01:49:55.613Z,14.10
2018-08-25T01:52:24.057Z,14.00
2018-08-25T01:54:52.533Z,13.90
2018-08-25T01:57:21.030Z,13.90
2018-08-25T01:59:49.510Z,13.80
2018-08-25T02:02:17.977Z,13.80
2018-08-25T02:04:46.487Z,13.80
2018-08-25T02:07:14.976Z,13.80
2018-08-25T02:09:43.470Z,13.80
2018-08-25T02:12:11.951Z,13.80
2018-08-25T02:14:40.951Z,13.80
2018-08-25T02:17:09.411Z,13.70
2018-08-25T02:19:37.844Z,13.70
2018-08-25T02:22:06.358Z,13.70
2018-08-25T02:24:34.807Z,13.70
2018-08-25T02:27:03.266Z,13.70
2018-08-25T02:29:31.762Z,13.70
2018-08-25T02:32:00.309Z,13.70
2018-08-25T02:34:28.791Z,13.60
2018-08-25T02:36:57.267Z,13.60
2018-08-25T02:39:25.734Z,13.60
2018-08-25T02:41:54.223Z,13.60
2018-08-25T02:44:22.678Z,13.50
2018-08-25T02:46:51.141Z,13.50
2018-08-25T02:49:19.591Z,13.50
2018-08-25T02:51:48.084Z,13.50
2018-08-25T02:54:16.569Z,13.40
2018-08-25T02:56:45.127Z,13.40
2018-08-25T02:59:13.577Z,13.40
2018-08-25T03:01:42.085Z,13.40
2018-08-25T03:04:10.633Z,13.40
2018-08-25T03:06:39.131Z,13.40
2018-08-25T03:09:09.462Z,13.30
2018-08-25T03:11:37.976Z,13.30
2018-08-25T03:14:06.470Z,13.30
2018-08-25T03:16:35.000Z,13.20
2018-08-25T03:19:03.498Z,13.20
2018-08-25T03:21:32.030Z,13.20
2018-08-25T03:24:00.573Z,13.20
2018-08-25T03:26:29.045Z,13.10
2018-08-25T03:28:57.490Z,13.10
2018-08-25T03:31:26.008Z,13.10
2018-08-25T03:33:54.465Z,13.10
2018-08-25T03:36:29.457Z,13.10
2018-08-25T03:38:57.882Z,13.00
2018-08-25T03:41:26.370Z,13.00
2018-08-25T03:43:54.831Z,13.00
2018-08-25T03:46:23.330Z,13.00
2018-08-25T03:48:51.791Z,13.00
2018-08-25T03:51:20.271Z,13.00
2018-08-25T03:53:48.790Z,13.00
2018-08-25T03:56:17.286Z,12.90
2018-08-25T03:58:45.766Z,12.90
2018-08-25T04:01:14.258Z,12.90
2018-08-25T04:03:42.751Z,12.90
2018-08-25T04:06:11.231Z,12.90
2018-08-25T04:08:39.705Z,12.90
2018-08-25T04:11:08.248Z,12.90
2018-08-25T04:13:36.743Z,12.80
2018-08-25T04:16:05.298Z,12.80
2018-08-25T04:18:33.753Z,12.90
2018-08-25T04:21:02.346Z,12.80
2018-08-25T04:23:30.787Z,12.80
2018-08-25T04:25:59.245Z,12.80
2018-08-25T04:28:27.696Z,12.70
2018-08-25T04:30:56.170Z,12.70
2018-08-25T04:33:24.629Z,12.70
2018-08-25T04:35:53.106Z,12.70
2018-08-25T04:38:21.542Z,12.70
2018-08-25T04:40:50.038Z,12.70
2018-08-25T04:43:18.483Z,12.60
2018-08-25T04:45:46.952Z,12.60
2018-08-25T04:48:15.391Z,12.60
2018-08-25T04:50:43.861Z,12.60
2018-08-25T04:53:12.439Z,12.60
2018-08-25T04:55:40.943Z,12.60
2018-08-25T04:58:09.381Z,12.60
2018-08-25T05:00:37.862Z,12.60
2018-08-25T05:03:07.204Z,12.60
2018-08-25T05:05:35.669Z,12.60
2018-08-25T05:08:04.124Z,12.60
2018-08-25T05:10:32.603Z,12.60
2018-08-25T05:13:01.028Z,12.60
2018-08-25T05:15:29.494Z,12.60
2018-08-25T05:17:57.921Z,12.60
2018-08-25T05:20:26.402Z,12.60
2018-08-25T05:22:54.827Z,12.60
2018-08-25T05:25:23.285Z,12.60
2018-08-25T05:27:51.711Z,12.60
2018-08-25T05:30:20.166Z,12.70
2018-08-25T05:32:48.614Z,12.70
2018-08-25T05:35:17.086Z,12.70
2018-08-25T05:37:45.553Z,12.70
2018-08-25T05:40:14.026Z,12.80
2018-08-25T05:42:42.502Z,12.80
2018-08-25T05:45:10.985Z,12.80
2018-08-25T05:47:39.420Z,12.80
2018-08-25T05:50:07.906Z,12.90
2018-08-25T05:52:36.338Z,12.90
2018-08-25T05:55:04.807Z,13.00
2018-08-25T05:57:33.309Z,12.90
2018-08-25T06:00:01.825Z,13.00
2018-08-25T06:02:30.262Z,13.00
2018-08-25T06:04:58.766Z,13.00
2018-08-25T06:07:27.211Z,13.00
2018-08-25T06:09:55.665Z,13.10
2018-08-25T06:12:24.106Z,13.20
2018-08-25T06:14:52.939Z,13.20
2018-08-25T06:17:21.381Z,13.20
2018-08-25T06:19:49.824Z,13.30
2018-08-25T06:22:18.311Z,13.40
2018-08-25T06:24:46.791Z,13.50
2018-08-25T06:27:15.248Z,13.50
2018-08-25T06:29:43.762Z,13.50
2018-08-25T06:32:12.167Z,13.60
2018-08-25T06:34:40.643Z,13.60
2018-08-25T06:37:09.077Z,13.70
2018-08-25T06:39:37.710Z,13.70
2018-08-25T06:42:06.327Z,13.80
2018-08-25T06:44:34.766Z,13.90
2018-08-25T06:47:03.671Z,13.90
2018-08-25T06:49:32.162Z,14.00
2018-08-25T06:52:00.639Z,14.00
2018-08-25T06:54:29.069Z,14.20
2018-08-25T06:56:57.570Z,14.20
2018-08-25T06:59:26.055Z,14.40
2018-08-25T07:01:54.544Z,14.40
2018-08-25T07:04:22.989Z,14.50
2018-08-25T07:06:51.534Z,14.50
2018-08-25T07:09:19.975Z,14.60
2018-08-25T07:11:48.450Z,14.60
2018-08-25T07:14:16.902Z,14.70
2018-08-25T07:16:45.386Z,14.80
2018-08-25T07:19:13.865Z,14.90
2018-08-25T07:21:42.358Z,15.00
2018-08-25T07:24:10.782Z,15.10
2018-08-25T07:26:39.249Z,15.20
2018-08-25T07:29:07.911Z,15.30
2018-08-25T07:31:36.397Z,15.40
2018-08-25T07:34:04.867Z,15.50
2018-08-25T07:36:33.330Z,15.60
2018-08-25T07:39:01.767Z,15.60
2018-08-25T07:41:30.235Z,15.70
2018-08-25T07:43:58.701Z,15.70
2018-08-25T07:46:27.162Z,15.80
2018-08-25T07:48:55.625Z,15.80
2018-08-25T07:51:24.098Z,15.90
2018-08-25T07:53:52.597Z,15.90
2018-08-25T07:56:21.058Z,16.00
2018-08-25T07:58:49.504Z,16.10
2018-08-25T08:01:17.998Z,16.20
2018-08-25T08:03:46.426Z,16.30
2018-08-25T08:06:15.363Z,16.30
2018-08-25T08:08:43.828Z,16.40
2018-08-25T08:11:12.276Z,16.50
2018-08-25T08:13:40.750Z,16.70
2018-08-25T08:16:09.432Z,16.90
2018-08-25T08:18:37.959Z,17.20
2018-08-25T08:21:06.498Z,17.40
2018-08-25T08:23:34.974Z,17.50
2018-08-25T08:26:03.414Z,17.60
2018-08-25T08:28:31.898Z,17.70
2018-08-25T08:31:00.343Z,17.80
2018-08-25T08:33:28.801Z,17.80
2018-08-25T08:35:57.258Z,17.70
2018-08-25T08:38:25.769Z,17.60
2018-08-25T08:40:54.239Z,17.50
2018-08-25T08:43:22.764Z,17.50
2018-08-25T08:45:51.202Z,17.50
2018-08-25T08:48:19.694Z,17.60
2018-08-25T08:50:48.149Z,17.60
2018-08-25T08:53:16.671Z,17.50
2018-08-25T08:55:45.137Z,17.50
2018-08-25T08:58:13.675Z,17.50
2018-08-25T09:00:42.117Z,17.60
2018-08-25T09:03:10.587Z,17.60
2018-08-25T09:05:39.026Z,17.60
2018-08-25T09:08:07.515Z,17.70
2018-08-25T09:10:35.963Z,17.70
2018-08-25T09:13:04.588Z,17.70
2018-08-25T09:15:33.281Z,17.80
2018-08-25T09:18:01.761Z,17.70
2018-08-25T09:20:30.191Z,17.60
2018-08-25T09:22:58.666Z,17.50
2018-08-25T09:25:27.105Z,17.50
2018-08-25T09:27:55.600Z,17.40
2018-08-25T09:30:24.030Z,17.40
2018-08-25T09:32:52.495Z,17.40
2018-08-25T09:35:20.927Z,17.20
2018-08-25T09:37:49.399Z,17.00
2018-08-25T09:40:17.851Z,17.00
2018-08-25T09:42:46.320Z,17.00
2018-08-25T09:45:14.787Z,16.90
2018-08-25T09:47:43.261Z,16.80
2018-08-25T09:50:11.677Z,16.80
2018-08-25T09:52:40.184Z,16.60
2018-08-25T09:55:08.711Z,16.60
2018-08-25T09:57:37.233Z,16.50
2018-08-25T10:00:05.784Z,16.50
2018-08-25T10:02:34.514Z,16.40
2018-08-25T10:05:03.117Z,16.30
2018-08-25T10:07:31.584Z,16.20
2018-08-25T10:10:00.014Z,16.10
2018-08-25T10:12:28.495Z,16.00
2018-08-25T10:14:56.945Z,15.90
2018-08-25T10:17:25.539Z,15.80
2018-08-25T10:19:54.035Z,15.60
2018-08-25T10:22:22.514Z,15.30
2018-08-25T10:24:51.040Z,15.10
2018-08-25T10:27:19.511Z,14.90
2018-08-25T10:29:48.016Z,14.60
2018-08-25T10:32:16.569Z,14.50
2018-08-25T10:34:45.715Z,14.40
2018-08-25T10:37:14.207Z,14.30
2018-08-25T10:39:42.736Z,14.30
2018-08-25T10:42:11.398Z,14.30
2018-08-25T10:44:39.789Z,14.20
2018-08-25T10:47:08.274Z,14.30
2018-08-25T10:49:36.715Z,14.40
2018-08-25T10:52:05.305Z,14.40
2018-08-25T10:54:33.897Z,14.40
2018-08-25T10:57:02.361Z,14.50
2018-08-25T10:59:30.840Z,14.60
2018-08-25T11:01:59.667Z,14.60
2018-08-25T11:04:28.142Z,14.60
2018-08-25T11:06:56.879Z,14.70
2018-08-25T11:09:25.360Z,14.80
2018-08-25T11:11:53.839Z,14.90
2018-08-25T11:14:22.349Z,15.00
2018-08-25T11:16:50.846Z,15.00
2018-08-25T11:19:19.296Z,15.10
2018-08-25T11:21:47.762Z,15.20
2018-08-25T11:24:16.249Z,15.20
2018-08-25T11:26:46.198Z,15.30
2018-08-25T11:29:14.730Z,15.20
2018-08-25T11:31:43.177Z,15.20
2018-08-25T11:34:11.647Z,15.10
2018-08-25T11:36:40.176Z,15.00
2018-08-25T11:39:10.058Z,15.00
2018-08-25T11:41:38.582Z,15.00
2018-08-25T11:44:07.144Z,15.00
2018-08-25T11:46:35.668Z,14.90
2018-08-25T11:49:04.307Z,14.80
2018-08-25T11:51:42.670Z,14.80
2018-08-25T11:54:11.197Z,14.70
2018-08-25T11:56:39.702Z,14.70
2018-08-25T11:59:08.189Z,14.60
2018-08-25T12:01:36.740Z,14.60
2018-08-25T12:04:05.506Z,14.60
2018-08-25T12:06:33.977Z,14.50
2018-08-25T12:09:02.438Z,14.50
2018-08-25T12:11:31.466Z,14.50
2018-08-25T12:14:00.200Z,14.50
2018-08-25T12:16:28.882Z,14.50
2018-08-25T12:18:57.271Z,14.40
2018-08-25T12:21:25.782Z,14.40
2018-08-25T12:23:54.252Z,14.40
2018-08-25T12:26:22.842Z,14.40
2018-08-25T12:28:51.276Z,14.40
2018-08-25T12:31:19.744Z,14.50
2018-08-25T12:33:48.163Z,14.50
2018-08-25T12:36:16.633Z,14.50
2018-08-25T12:38:45.110Z,14.50
2018-08-25T12:41:13.584Z,14.40
2018-08-25T12:43:42.039Z,14.40
2018-08-25T12:46:10.540Z,14.40
2018-08-25T12:48:38.978Z,14.40
2018-08-25T12:51:07.517Z,14.50
2018-08-25T12:53:35.976Z,14.50
2018-08-25T12:56:04.441Z,14.50
2018-08-25T12:58:32.906Z,14.50
2018-08-25T13:01:01.361Z,14.60
2018-08-25T13:03:29.828Z,14.60
2018-08-25T13:05:58.311Z,14.60
2018-08-25T13:08:26.737Z,14.60
2018-08-25T13:10:55.258Z,14.60
2018-08-25T13:13:23.694Z,14.60
2018-08-25T13:15:52.158Z,14.60
2018-08-25T13:18:20.921Z,14.60
2018-08-25T13:20:49.398Z,14.60
2018-08-25T13:23:17.846Z,14.60
2018-08-25T13:25:46.399Z,14.70
2018-08-25T13:28:14.848Z,14.60
2018-08-25T13:30:43.356Z,14.60
2018-08-25T13:33:11.806Z,14.50
2018-08-25T13:35:40.272Z,14.60
2018-08-25T13:38:08.875Z,14.60
2018-08-25T13:40:37.377Z,14.60
2018-08-25T13:43:05.884Z,14.50
2018-08-25T13:45:34.422Z,14.50
2018-08-25T13:48:02.834Z,14.50
2018-08-25T13:50:31.286Z,14.40
2018-08-25T13:53:00.084Z,14.50
2018-08-25T13:55:28.613Z,14.50
2018-08-25T13:57:57.982Z,14.50
2018-08-25T14:00:26.456Z,14.50
2018-08-25T14:02:54.887Z,14.50
2018-08-25T14:05:23.366Z,14.70
2018-08-25T14:07:51.811Z,14.70
2018-08-25T14:10:20.536Z,14.80
2018-08-25T14:12:48.979Z,14.90
2018-08-25T14:15:17.583Z,15.00
2018-08-25T14:17:46.041Z,15.00
2018-08-25T14:20:14.484Z,15.10
2018-08-25T14:22:43.195Z,15.00
2018-08-25T14:25:11.665Z,15.10
2018-08-25T14:27:40.117Z,15.10
2018-08-25T14:30:08.623Z,15.10
2018-08-25T14:32:37.086Z,15.00
2018-08-25T14:35:05.665Z,15.00
2018-08-25T14:37:34.130Z,15.10
2018-08-25T14:40:02.565Z,15.20
2018-08-25T14:42:31.043Z,15.20
2018-08-25T14:44:59.500Z,15.20
2018-08-25T14:47:27.977Z,15.20
2018-08-25T14:49:56.407Z,15.20
2018-08-25T14:52:24.887Z,15.10
2018-08-25T14:54:53.345Z,15.10
2018-08-25T14:57:21.814Z,15.10
2018-08-25T14:59:50.247Z,15.10
2018-08-25T15:02:18.722Z,15.10
2018-08-25T15:04:47.171Z,15.10
2018-08-25T15:07:15.642Z,15.00
2018-08-25T15:09:44.078Z,15.00
2018-08-25T15:12:12.558Z,15.00
2018-08-25T15:14:41.039Z,14.90
2018-08-25T15:17:09.577Z,14.90
2018-08-25T15:19:38.026Z,15.00
2018-08-25T15:22:06.844Z,15.10
2018-08-25T15:24:35.297Z,15.20
2018-08-25T15:27:03.930Z,15.30
2018-08-25T15:29:32.381Z,15.20
2018-08-25T15:32:00.811Z,15.30
2018-08-25T15:34:29.265Z,15.30
2018-08-25T15:36:57.686Z,15.30
2018-08-25T15:39:26.158Z,15.30
2018-08-25T15:41:54.582Z,15.30
2018-08-25T15:44:23.066Z,15.40
2018-08-25T15:46:51.503Z,15.40
2018-08-25T15:49:19.996Z,15.40
2018-08-25T15:51:48.535Z,15.50
2018-08-25T15:54:17.009Z,15.40
2018-08-25T15:56:45.450Z,15.50
2018-08-25T15:59:13.917Z,15.40
2018-08-25T16:01:42.359Z,15.50
2018-08-25T16:04:10.841Z,15.50
2018-08-25T16:06:39.310Z,15.50
2018-08-25T16:09:09.418Z,15.60
2018-08-25T16:11:38.619Z,15.60
2018-08-25T16:14:07.154Z,15.50
2018-08-25T16:16:35.866Z,15.50
2018-08-25T16:19:04.496Z,15.50
2018-08-25T16:21:34.112Z,15.60
2018-08-25T16:24:02.626Z,15.60
2018-08-25T16:26:31.086Z,15.70
2018-08-25T16:28:59.554Z,15.70
2018-08-25T16:31:28.161Z,15.70
2018-08-25T16:33:56.625Z,15.70
2018-08-25T16:36:25.097Z,15.70
2018-08-25T16:38:53.590Z,15.70
2018-08-25T16:41:22.023Z,15.70
2018-08-25T16:43:50.504Z,15.60
2018-08-25T16:46:18.956Z,15.60
2018-08-25T16:48:47.922Z,15.60
2018-08-25T16:51:16.362Z,15.50
2018-08-25T16:53:44.875Z,15.50
2018-08-25T16:56:13.316Z,15.50
2018-08-25T16:58:41.831Z,15.40
2018-08-25T17:01:10.511Z,15.40
2018-08-25T17:03:38.985Z,15.30
2018-08-25T17:06:07.434Z,15.30
2018-08-25T17:08:35.910Z,15.40
2018-08-25T17:11:04.360Z,15.40
2018-08-25T17:13:32.827Z,15.40
2018-08-25T17:16:01.256Z,15.50
2018-08-25T17:18:29.730Z,15.40
2018-08-25T17:20:58.176Z,15.40
2018-08-25T17:23:26.694Z,15.40
2018-08-25T17:25:55.141Z,15.30
2018-08-25T17:28:23.613Z,15.30
2018-08-25T17:30:52.071Z,15.20
2018-08-25T17:33:20.655Z,15.20
2018-08-25T17:35:49.106Z,15.20
2018-08-25T17:38:17.697Z,15.20
2018-08-25T17:40:46.133Z,15.10
2018-08-25T17:43:14.562Z,15.10
2018-08-25T17:45:43.027Z,15.00
2018-08-25T17:48:11.542Z,14.90
2018-08-25T17:50:40.027Z,14.90
2018-08-25T17:53:08.514Z,14.90
2018-08-25T17:55:37.091Z,14.80
2018-08-25T17:58:05.583Z,14.80
2018-08-25T18:00:34.088Z,14.70
2018-08-25T18:03:02.579Z,14.70
2018-08-25T18:05:31.048Z,14.70
2018-08-25T18:07:59.498Z,14.60
2018-08-25T18:10:27.997Z,14.60
2018-08-25T18:12:56.440Z,14.60
2018-08-25T18:15:24.945Z,14.60
2018-08-25T18:17:53.389Z,14.60
2018-08-25T18:20:21.877Z,14.50
2018-08-25T18:22:50.303Z,14.50
2018-08-25T18:25:18.757Z,14.40
2018-08-25T18:27:47.200Z,14.30
2018-08-25T18:30:15.751Z,14.20
2018-08-25T18:32:44.129Z,14.00
2018-08-25T18:35:12.611Z,13.90
2018-08-25T18:37:41.063Z,13.80
2018-08-25T18:40:09.566Z,13.70
2018-08-25T18:42:38.015Z,13.60
2018-08-25T18:45:06.752Z,13.60
2018-08-25T18:47:35.498Z,13.60
2018-08-25T18:50:04.025Z,13.50
2018-08-25T18:52:33.918Z,13.40
2018-08-25T18:55:02.439Z,13.30
2018-08-25T18:57:33.096Z,13.20
2018-08-25T19:00:01.678Z,13.20
2018-08-25T19:02:31.209Z,13.10
2018-08-25T19:04:59.699Z,13.10
2018-08-25T19:07:28.226Z,13.10
2018-08-25T19:09:57.229Z,13.10
2018-08-25T19:12:25.715Z,13.10
2018-08-25T19:14:54.212Z,13.10
2018-08-25T19:17:22.933Z,13.00
2018-08-25T19:19:51.452Z,13.00
2018-08-25T19:22:20.388Z,12.90
2018-08-25T19:24:49.353Z,12.90
2018-08-25T19:27:18.570Z,12.90
2018-08-25T19:29:47.245Z,12.80
2018-08-25T19:32:15.705Z,12.80
2018-08-25T19:34:44.204Z,12.70
2018-08-25T19:37:13.061Z,12.70
2018-08-25T19:39:41.647Z,12.60
2018-08-25T19:42:10.345Z,12.50
2018-08-25T19:44:39.068Z,12.40
2018-08-25T19:47:07.875Z,12.30
2018-08-25T19:49:36.443Z,12.30
2018-08-25T19:52:05.393Z,12.20
2018-08-25T19:54:34.234Z,12.20
2018-08-25T19:57:02.769Z,12.20
2018-08-25T19:59:31.886Z,12.20
2018-08-25T20:02:00.489Z,12.10
2018-08-25T20:04:29.535Z,12.10
2018-08-25T20:06:57.998Z,12.00
2018-08-25T20:09:26.539Z,12.00
2018-08-25T20:11:55.046Z,12.00
2018-08-25T20:14:23.986Z,11.80
2018-08-25T20:16:52.421Z,11.80
2018-08-25T20:19:20.877Z,11.70
2018-08-25T20:21:49.395Z,11.60
2018-08-25T20:24:17.862Z,11.60
2018-08-25T20:26:46.347Z,11.50
2018-08-25T20:29:14.829Z,11.50
2018-08-25T20:31:43.343Z,11.40
2018-08-25T20:34:11.829Z,11.30
2018-08-25T20:36:40.336Z,11.20
2018-08-25T20:39:09.597Z,11.20
2018-08-25T20:41:38.220Z,11.20
2018-08-25T20:44:06.766Z,11.20
2018-08-25T20:46:35.291Z,11.20
2018-08-25T20:49:05.118Z,11.20
2018-08-25T20:51:34.553Z,11.20
2018-08-25T20:54:03.369Z,11.20
2018-08-25T20:56:32.737Z,11.30
2018-08-25T20:59:01.594Z,11.30
2018-08-25T21:01:30.135Z,11.30
2018-08-25T21:03:58.611Z,11.30
2018-08-25T21:06:27.083Z,11.20
2018-08-25T21:08:55.563Z,11.20
2018-08-25T21:11:24.053Z,11.20
2018-08-25T21:13:52.518Z,11.10
2018-08-25T21:16:20.991Z,11.10
2018-08-25T21:18:49.444Z,11.10
2018-08-25T21:21:18.009Z,11.10
2018-08-25T21:23:46.508Z,11.10
2018-08-25T21:26:14.995Z,11.10
2018-08-25T21:28:43.455Z,11.10
2018-08-25T21:31:11.930Z,11.10
2018-08-25T21:33:40.394Z,11.10
2018-08-25T21:36:08.903Z,11.00
2018-08-25T21:38:37.382Z,11.00
2018-08-25T21:41:06.280Z,11.00
2018-08-25T21:43:34.705Z,10.90
2018-08-25T21:46:03.210Z,10.80
2018-08-25T21:48:31.705Z,10.80
2018-08-25T21:51:00.264Z,10.80
2018-08-25T21:53:28.737Z,10.80
2018-08-25T21:55:57.221Z,10.70
2018-08-25T21:58:25.750Z,10.70
2018-08-25T22:00:55.042Z,10.60
2018-08-25T22:03:23.942Z,10.70
2018-08-25T22:05:53.352Z,10.70
2018-08-25T22:08:22.176Z,10.70
2018-08-25T22:10:51.061Z,10.60
2018-08-25T22:13:19.610Z,10.60
2018-08-25T22:15:48.378Z,10.60
2018-08-25T22:18:16.877Z,10.60
2018-08-25T22:20:45.341Z,10.50
2018-08-25T22:23:13.903Z,10.50
2018-08-25T22:25:42.379Z,10.50
2018-08-25T22:28:10.888Z,10.50
2018-08-25T22:30:39.350Z,10.50
2018-08-25T22:33:07.858Z,10.50
2018-08-25T22:35:36.314Z,10.50
2018-08-25T22:38:04.830Z,10.50
2018-08-25T22:40:33.296Z,10.50
2018-08-25T22:43:01.803Z,10.50
2018-08-25T22:45:30.277Z,10.40
2018-08-25T22:47:58.743Z,10.40
2018-08-25T22:50:27.420Z,10.40
2018-08-25T22:52:55.967Z,10.30
2018-08-25T22:55:24.435Z,10.30
2018-08-25T22:57:52.991Z,10.30
2018-08-25T23:00:21.837Z,10.30
2018-08-25T23:02:50.313Z,10.20
2018-08-25T23:05:18.850Z,10.20
2018-08-25T23:07:47.362Z,10.20
2018-08-25T23:10:15.802Z,10.20
2018-08-25T23:12:44.304Z,10.10
2018-08-25T23:15:12.779Z,10.10
2018-08-25T23:17:41.242Z,10.10
2018-08-25T23:20:09.708Z,10.00
2018-08-25T23:22:38.201Z,10.00
2018-08-25T23:25:06.715Z,9.90
2018-08-25T23:27:35.202Z,9.90
2018-08-25T23:30:03.784Z,9.90
2018-08-25T23:32:32.287Z,9.90
2018-08-25T23:35:00.730Z,9.90
2018-08-25T23:37:29.231Z,9.90
2018-08-25T23:39:57.714Z,9.80
2018-08-25T23:42:26.225Z,9.90
2018-08-25T23:44:54.669Z,9.80
2018-08-25T23:47:23.163Z,9.80
2018-08-25T23:49:51.642Z,9.90
2018-08-25T23:52:20.139Z,9.90
2018-08-25T23:54:48.602Z,9.80
2018-08-25T23:57:17.062Z,9.80
2018-08-25T23:59:45.594Z,9.80
